createdAt,value
2019-05-12T00:01:58.706Z,93.01
2019-05-12T00:04:28.532Z,93.12
2019-05-12T00:06:58.635Z,93.03
2019-05-12T00:09:28.560Z,93.06
2019-05-12T00:11:59.058Z,93.19
2019-05-12T00:14:29.060Z,93.32
2019-05-12T00:16:58.595Z,93.52
2019-05-12T00:19:28.633Z,93.57
2019-05-12T00:21:58.835Z,93.65
2019-05-12T00:24:28.867Z,93.78
2019-05-12T00:27:00.136Z,93.85
2019-05-12T00:29:30.063Z,93.81
2019-05-12T00:32:00.113Z,93.64
2019-05-12T00:34:29.559Z,93.39
2019-05-12T00:36:59.178Z,91.78
2019-05-12T00:39:28.798Z,91.12
2019-05-12T00:41:58.784Z,91.65
2019-05-12T00:44:28.623Z,92.13
2019-05-12T00:46:58.636Z,92.48
2019-05-12T00:49:29.000Z,92.75
2019-05-12T00:51:59.083Z,92.49
2019-05-12T00:54:28.916Z,92.20
2019-05-12T00:56:58.692Z,91.89
2019-05-12T00:59:28.626Z,91.89
2019-05-12T01:01:58.718Z,91.34
2019-05-12T01:04:29.298Z,91.54
2019-05-12T01:06:59.731Z,91.34
2019-05-12T01:09:29.920Z,91.61
2019-05-12T01:11:59.946Z,91.56
2019-05-12T01:14:30.178Z,91.67
2019-05-12T01:16:59.891Z,91.89
2019-05-12T01:19:30.021Z,92.06
2019-05-12T01:21:59.728Z,92.19
2019-05-12T01:24:29.667Z,92.27
2019-05-12T01:27:00.091Z,92.38
2019-05-12T01:29:30.365Z,92.42
2019-05-12T01:32:20.319Z,92.42
2019-05-12T01:34:50.244Z,91.99
2019-05-12T01:37:23.164Z,92.06
2019-05-12T01:39:54.113Z,92.14
2019-05-12T01:42:24.019Z,92.18
2019-05-12T01:44:54.110Z,92.12
2019-05-12T01:47:23.737Z,92.39
2019-05-12T01:49:54.844Z,92.21
2019-05-12T01:52:25.035Z,92.24
2019-05-12T01:54:55.185Z,92.06
2019-05-12T01:57:24.803Z,92.25
2019-05-12T01:59:54.770Z,92.40
2019-05-12T02:02:24.392Z,92.58
2019-05-12T02:05:02.110Z,92.40
2019-05-12T02:07:33.562Z,92.47
2019-05-12T02:10:04.238Z,92.61
2019-05-12T02:12:33.948Z,92.66
2019-05-12T02:15:07.999Z,92.76
2019-05-12T02:17:39.107Z,92.84
2019-05-12T02:20:09.813Z,92.94
2019-05-12T02:22:39.729Z,92.87
2019-05-12T02:25:09.283Z,92.94
2019-05-12T02:27:39.907Z,92.94
2019-05-12T02:30:11.284Z,92.96
2019-05-12T02:32:49.530Z,93.04
2019-05-12T02:35:15.895Z,93.21
2019-05-12T02:37:45.184Z,93.25
2019-05-12T02:40:16.621Z,93.18
2019-05-12T02:42:46.751Z,92.95
2019-05-12T02:45:17.154Z,92.91
2019-05-12T02:47:47.067Z,92.94
2019-05-12T02:50:19.889Z,92.96
2019-05-12T02:52:49.766Z,93.02
2019-05-12T02:55:19.371Z,93.13
2019-05-12T02:57:49.054Z,93.22
2019-05-12T03:00:18.685Z,93.20
2019-05-12T03:02:50.828Z,93.26
2019-05-12T03:05:20.560Z,93.32
2019-05-12T03:07:50.465Z,93.43
2019-05-12T03:10:20.501Z,93.57
2019-05-12T03:12:50.092Z,93.69
2019-05-12T03:15:19.725Z,93.76
2019-05-12T03:17:49.896Z,93.79
2019-05-12T03:20:24.178Z,93.77
2019-05-12T03:22:55.434Z,93.75
2019-05-12T03:25:29.702Z,93.73
2019-05-12T03:27:55.631Z,93.77
2019-05-12T03:30:29.195Z,93.80
2019-05-12T03:32:58.278Z,93.76
2019-05-12T03:35:33.345Z,93.72
2019-05-12T03:37:59.051Z,93.61
2019-05-12T03:40:29.486Z,93.54
2019-05-12T03:42:59.008Z,93.52
2019-05-12T03:45:28.523Z,93.55
2019-05-12T03:47:58.045Z,93.53
2019-05-12T03:50:29.167Z,93.54
2019-05-12T03:52:58.905Z,93.52
2019-05-12T03:55:35.883Z,93.66
2019-05-12T03:58:00.070Z,93.78
2019-05-12T04:00:29.517Z,93.76
2019-05-12T04:02:58.973Z,93.76
2019-05-12T04:05:28.851Z,93.67
2019-05-12T04:07:58.856Z,93.55
2019-05-12T04:10:28.460Z,93.43
2019-05-12T04:12:58.291Z,93.32
2019-05-12T04:15:27.895Z,93.20
2019-05-12T04:17:57.807Z,93.10
2019-05-12T04:20:27.436Z,93.04
2019-05-12T04:22:57.298Z,92.93
2019-05-12T04:25:44.812Z,92.72
2019-05-12T04:27:58.049Z,92.56
2019-05-12T04:30:27.495Z,92.67
2019-05-12T04:32:57.497Z,92.73
2019-05-12T04:35:26.952Z,92.78
2019-05-12T04:37:56.556Z,92.77
2019-05-12T04:40:26.159Z,92.88
2019-05-12T04:42:55.678Z,92.94
2019-05-12T04:45:25.749Z,92.83
2019-05-12T04:47:55.426Z,92.76
2019-05-12T04:50:24.918Z,92.63
2019-05-12T04:52:55.030Z,92.55
2019-05-12T04:55:25.726Z,92.58
2019-05-12T04:57:55.423Z,92.36
2019-05-12T05:00:25.951Z,91.55
2019-05-12T05:02:55.545Z,91.43
2019-05-12T05:05:25.494Z,91.78
2019-05-12T05:07:55.497Z,91.66
2019-05-12T05:10:25.234Z,91.49
2019-05-12T05:12:54.768Z,91.60
2019-05-12T05:15:25.125Z,91.43
2019-05-12T05:17:54.770Z,91.62
2019-05-12T05:20:24.488Z,91.24
2019-05-12T05:22:54.394Z,91.01
2019-05-12T05:25:23.908Z,90.84
2019-05-12T05:27:53.543Z,90.96
2019-05-12T05:30:24.340Z,90.48
2019-05-12T05:32:54.021Z,90.22
2019-05-12T05:35:23.923Z,89.76
2019-05-12T05:37:54.072Z,89.71
2019-05-12T05:40:25.969Z,89.59
2019-05-12T05:42:55.072Z,89.59
2019-05-12T05:45:26.519Z,90.08
2019-05-12T05:47:59.578Z,89.71
2019-05-12T05:50:29.564Z,89.68
2019-05-12T05:52:58.415Z,89.54
2019-05-12T05:55:28.116Z,89.55
2019-05-12T05:57:59.874Z,89.33
2019-05-12T06:00:29.077Z,88.96
2019-05-12T06:02:58.723Z,89.40
2019-05-12T06:05:30.876Z,89.61
2019-05-12T06:07:59.908Z,89.95
2019-05-12T06:10:36.040Z,89.93
2019-05-12T06:13:00.954Z,89.84
2019-05-12T06:15:35.783Z,89.36
2019-05-12T06:18:03.620Z,89.33
2019-05-12T06:20:37.648Z,89.43
2019-05-12T06:23:05.016Z,89.23
2019-05-12T06:25:46.362Z,89.22
2019-05-12T06:28:08.957Z,88.64
2019-05-12T06:30:44.259Z,88.68
2019-05-12T06:33:10.416Z,88.31
2019-05-12T06:35:42.354Z,88.22
2019-05-12T06:38:13.418Z,87.78
2019-05-12T06:40:45.285Z,87.98
2019-05-12T06:43:15.331Z,86.79
2019-05-12T06:45:45.853Z,87.16
2019-05-12T06:48:19.337Z,85.65
2019-05-12T06:50:46.629Z,85.16
2019-05-12T06:53:20.110Z,85.13
2019-05-12T06:55:47.475Z,84.42
2019-05-12T06:58:26.293Z,84.00
2019-05-12T07:00:48.752Z,81.97
2019-05-12T07:03:19.522Z,80.99
2019-05-12T07:05:49.703Z,79.38
2019-05-12T07:08:26.574Z,79.71
2019-05-12T07:10:57.680Z,78.21
2019-05-12T07:13:24.896Z,77.58
2019-05-12T07:15:54.387Z,75.78
2019-05-12T07:18:32.262Z,73.54
2019-05-12T07:20:56.155Z,73.11
2019-05-12T07:23:30.196Z,71.61
2019-05-12T07:25:57.514Z,69.66
2019-05-12T07:28:30.393Z,71.25
2019-05-12T07:30:58.648Z,72.56
2019-05-12T07:33:32.798Z,72.56
2019-05-12T07:36:01.327Z,72.07
2019-05-12T07:38:33.827Z,72.23
2019-05-12T07:41:06.769Z,72.23
2019-05-12T07:43:34.212Z,74.96
2019-05-12T07:46:07.017Z,76.42
2019-05-12T07:48:40.338Z,72.46
2019-05-12T07:51:06.758Z,70.85
2019-05-12T07:53:36.270Z,69.95
2019-05-12T07:56:05.809Z,68.77
2019-05-12T07:58:35.439Z,68.77
2019-05-12T08:01:07.902Z,68.25
2019-05-12T08:03:36.238Z,69.22
2019-05-12T08:06:06.054Z,66.39
2019-05-12T08:08:35.505Z,67.14
2019-05-12T08:11:05.246Z,70.86
2019-05-12T08:13:37.839Z,66.95
2019-05-12T08:16:05.985Z,68.07
2019-05-12T08:18:40.049Z,69.45
2019-05-12T08:21:07.045Z,71.22
2019-05-12T08:23:38.069Z,71.37
2019-05-12T08:26:12.263Z,69.30
2019-05-12T08:28:40.528Z,66.36
2019-05-12T08:31:10.099Z,69.03
2019-05-12T08:33:40.089Z,66.38
2019-05-12T08:36:11.662Z,65.99
2019-05-12T08:38:41.569Z,66.46
2019-05-12T08:41:11.197Z,66.11
2019-05-12T08:43:47.117Z,65.19
2019-05-12T08:46:15.502Z,62.30
2019-05-12T08:48:44.587Z,62.30
2019-05-12T08:51:19.819Z,57.81
2019-05-12T08:53:45.801Z,58.68
2019-05-12T08:56:19.786Z,58.96
2019-05-12T08:58:51.088Z,57.55
2019-05-12T09:01:20.234Z,56.48
2019-05-12T09:03:49.653Z,56.49
2019-05-12T09:06:19.823Z,56.73
2019-05-12T09:08:49.736Z,55.21
2019-05-12T09:11:19.221Z,54.80
2019-05-12T09:13:52.668Z,54.52
2019-05-12T09:16:19.920Z,54.74
2019-05-12T09:18:49.355Z,52.83
2019-05-12T09:21:25.304Z,51.41
2019-05-12T09:23:53.226Z,48.91
2019-05-12T09:26:24.998Z,47.85
2019-05-12T09:28:54.299Z,48.19
2019-05-12T09:31:25.375Z,51.14
2019-05-12T09:33:55.421Z,50.72
2019-05-12T09:36:25.059Z,48.09
2019-05-12T09:39:01.429Z,48.91
2019-05-12T09:41:25.774Z,50.45
2019-05-12T09:43:55.308Z,52.90
2019-05-12T09:46:28.513Z,55.76
2019-05-12T09:48:56.680Z,54.67
2019-05-12T09:51:26.960Z,54.83
2019-05-12T09:53:56.473Z,51.35
2019-05-12T09:56:26.367Z,53.50
2019-05-12T09:59:01.665Z,53.06
2019-05-12T10:01:29.230Z,52.32
2019-05-12T10:03:58.670Z,46.83
2019-05-12T10:06:28.207Z,48.37
2019-05-12T10:08:57.854Z,44.57
2019-05-12T10:11:27.566Z,45.86
2019-05-12T10:14:00.282Z,46.61
2019-05-12T10:16:28.331Z,43.07
2019-05-12T10:18:57.885Z,41.98
2019-05-12T10:21:27.337Z,43.17
2019-05-12T10:24:00.505Z,41.21
2019-05-12T10:26:28.435Z,41.22
2019-05-12T10:28:59.819Z,38.98
2019-05-12T10:31:35.605Z,41.69
2019-05-12T10:34:19.725Z,44.77
2019-05-12T10:36:51.126Z,43.92
2019-05-12T10:39:24.496Z,42.67
2019-05-12T10:41:54.813Z,43.42
2019-05-12T10:44:34.108Z,43.57
2019-05-12T10:46:57.901Z,43.18
2019-05-12T10:49:27.499Z,39.95
2019-05-12T10:51:57.903Z,37.90
2019-05-12T10:54:27.519Z,38.40
2019-05-12T10:56:57.842Z,36.90
2019-05-12T10:59:32.957Z,38.95
2019-05-12T11:01:58.708Z,39.60
2019-05-12T11:04:35.803Z,38.52
2019-05-12T11:06:59.663Z,36.55
2019-05-12T11:09:31.618Z,39.20
2019-05-12T11:12:00.629Z,35.73
2019-05-12T11:14:30.715Z,35.15
2019-05-12T11:17:07.901Z,35.71
2019-05-12T11:19:33.895Z,34.49
2019-05-12T11:22:03.753Z,37.67
2019-05-12T11:24:33.804Z,35.85
2019-05-12T11:27:04.071Z,38.69
2019-05-12T11:29:45.690Z,40.23
2019-05-12T11:32:05.039Z,39.48
2019-05-12T11:34:34.953Z,35.96
2019-05-12T11:37:04.410Z,35.53
2019-05-12T11:39:36.784Z,34.90
2019-05-12T11:42:05.355Z,34.67
2019-05-12T11:44:34.951Z,34.78
2019-05-12T11:47:04.835Z,34.63
2019-05-12T11:49:34.362Z,32.86
2019-05-12T11:52:07.474Z,31.53
2019-05-12T11:54:35.764Z,34.67
2019-05-12T11:57:05.284Z,32.74
2019-05-12T11:59:34.877Z,34.31
2019-05-12T12:02:04.467Z,35.75
2019-05-12T12:04:37.953Z,35.06
2019-05-12T12:07:07.576Z,34.64
2019-05-12T12:09:37.052Z,33.29
2019-05-12T12:12:07.441Z,35.07
2019-05-12T12:14:40.162Z,36.42
2019-05-12T12:17:08.163Z,35.62
2019-05-12T12:19:43.895Z,33.40
2019-05-12T12:22:09.448Z,33.72
2019-05-12T12:24:38.914Z,35.55
2019-05-12T12:27:08.368Z,35.54
2019-05-12T12:29:37.824Z,31.75
2019-05-12T12:32:09.821Z,32.51
2019-05-12T12:34:38.815Z,31.50
2019-05-12T12:37:08.276Z,32.12
2019-05-12T12:39:37.908Z,32.00
2019-05-12T12:42:07.618Z,33.73
2019-05-12T12:44:37.257Z,33.22
2019-05-12T12:47:07.060Z,31.64
2019-05-12T12:49:40.074Z,31.64
2019-05-12T12:52:08.253Z,30.26
2019-05-12T12:54:38.302Z,32.58
2019-05-12T12:57:09.976Z,34.75
2019-05-12T12:59:45.417Z,36.20
2019-05-12T13:02:10.695Z,36.45
2019-05-12T13:04:48.387Z,36.22
2019-05-12T13:07:13.583Z,35.22
2019-05-12T13:09:44.117Z,35.66
2019-05-12T13:12:18.790Z,33.50
2019-05-12T13:14:44.974Z,34.66
2019-05-12T13:17:14.834Z,33.56
2019-05-12T13:19:48.795Z,33.87
2019-05-12T13:22:18.917Z,35.82
2019-05-12T13:24:47.224Z,33.42
2019-05-12T13:27:19.204Z,32.81
2019-05-12T13:29:48.031Z,32.24
2019-05-12T13:32:17.502Z,32.67
2019-05-12T13:34:47.413Z,33.21
2019-05-12T13:37:19.415Z,32.68
2019-05-12T13:39:56.853Z,33.36
2019-05-12T13:42:19.604Z,33.39
2019-05-12T13:44:49.350Z,36.27
2019-05-12T13:47:19.132Z,30.66
2019-05-12T13:49:48.946Z,32.25
2019-05-12T13:52:20.131Z,31.78
2019-05-12T13:54:50.029Z,31.55
2019-05-12T13:57:19.487Z,31.74
2019-05-12T13:59:53.714Z,32.61
2019-05-12T14:02:22.117Z,33.73
2019-05-12T14:04:53.575Z,32.12
2019-05-12T14:07:23.691Z,32.39
2019-05-12T14:09:53.307Z,31.61
2019-05-12T14:12:22.933Z,33.69
2019-05-12T14:14:52.386Z,31.86
2019-05-12T14:17:23.518Z,31.26
2019-05-12T14:19:53.352Z,30.30
2019-05-12T14:22:26.387Z,30.80
2019-05-12T14:24:54.870Z,31.87
2019-05-12T14:27:28.617Z,32.09
2019-05-12T14:30:00.796Z,30.92
2019-05-12T14:32:27.199Z,32.48
2019-05-12T14:35:00.557Z,33.46
2019-05-12T14:37:28.371Z,33.68
2019-05-12T14:39:58.351Z,32.05
2019-05-12T14:42:34.832Z,31.78
2019-05-12T14:44:59.410Z,32.57
2019-05-12T14:47:30.260Z,33.34
2019-05-12T14:49:59.881Z,34.14
2019-05-12T14:52:30.363Z,32.10
2019-05-12T14:54:59.901Z,33.89
2019-05-12T14:57:34.723Z,33.15
2019-05-12T15:00:00.642Z,33.36
2019-05-12T15:02:30.520Z,33.08
2019-05-12T15:05:05.748Z,34.59
2019-05-12T15:07:31.807Z,32.69
2019-05-12T15:10:03.701Z,33.10
2019-05-12T15:12:33.546Z,33.59
2019-05-12T15:15:03.824Z,33.82
2019-05-12T15:17:33.827Z,36.30
2019-05-12T15:20:06.595Z,35.73
2019-05-12T15:22:35.953Z,35.16
2019-05-12T15:25:06.710Z,36.38
2019-05-12T15:27:44.369Z,36.43
2019-05-12T15:30:20.282Z,36.62
2019-05-12T15:32:40.457Z,36.60
2019-05-12T15:35:10.393Z,36.71
2019-05-12T15:37:39.944Z,37.45
2019-05-12T15:40:09.817Z,36.78
2019-05-12T15:42:39.277Z,36.09
2019-05-12T15:45:12.721Z,36.15
2019-05-12T15:47:40.894Z,35.09
2019-05-12T15:50:10.440Z,34.14
2019-05-12T15:52:42.384Z,36.67
2019-05-12T15:55:13.653Z,34.35
2019-05-12T15:57:44.046Z,33.27
2019-05-12T16:00:16.863Z,33.50
2019-05-12T16:02:45.908Z,35.58
2019-05-12T16:05:19.954Z,35.09
2019-05-12T16:07:50.470Z,35.40
2019-05-12T16:10:20.073Z,34.17
2019-05-12T16:12:49.532Z,34.88
2019-05-12T16:15:20.186Z,35.07
2019-05-12T16:17:49.976Z,34.17
2019-05-12T16:20:19.781Z,35.38
2019-05-12T16:22:49.676Z,34.75
2019-05-12T16:25:20.849Z,35.56
2019-05-12T16:27:51.798Z,36.57
2019-05-12T16:30:25.998Z,36.72
2019-05-12T16:32:55.051Z,36.50
2019-05-12T16:35:26.445Z,38.00
2019-05-12T16:37:55.990Z,38.36
2019-05-12T16:40:25.529Z,39.50
2019-05-12T16:42:59.607Z,39.43
2019-05-12T16:45:26.573Z,39.16
2019-05-12T16:47:59.345Z,39.66
2019-05-12T16:50:28.177Z,39.60
2019-05-12T16:52:57.802Z,40.23
2019-05-12T16:55:27.322Z,42.99
2019-05-12T16:57:56.900Z,41.35
2019-05-12T17:00:26.676Z,40.81
2019-05-12T17:02:58.048Z,41.42
2019-05-12T17:05:27.626Z,40.87
2019-05-12T17:07:57.506Z,41.16
2019-05-12T17:10:27.116Z,41.71
2019-05-12T17:12:57.281Z,41.97
2019-05-12T17:15:26.925Z,42.03
2019-05-12T17:18:01.320Z,42.73
2019-05-12T17:20:28.075Z,42.87
2019-05-12T17:23:00.192Z,41.82
2019-05-12T17:25:29.065Z,43.34
2019-05-12T17:28:03.874Z,43.12
2019-05-12T17:30:30.576Z,44.39
2019-05-12T17:33:04.296Z,44.44
2019-05-12T17:35:34.980Z,43.73
2019-05-12T17:38:04.560Z,43.73
2019-05-12T17:40:34.197Z,44.60
2019-05-12T17:43:09.995Z,43.88
2019-05-12T17:45:35.407Z,44.57
2019-05-12T17:48:07.541Z,44.57
2019-05-12T17:50:40.354Z,43.95
2019-05-12T17:53:07.711Z,43.49
2019-05-12T17:55:44.356Z,43.49
2019-05-12T17:58:08.994Z,44.24
2019-05-12T18:00:41.381Z,43.84
2019-05-12T18:03:18.154Z,45.04
2019-05-12T18:05:42.463Z,44.77
2019-05-12T18:08:14.264Z,43.81
2019-05-12T18:10:43.806Z,45.63
2019-05-12T18:13:17.525Z,45.63
2019-05-12T18:15:44.644Z,44.92
2019-05-12T18:18:17.270Z,45.52
2019-05-12T18:20:45.528Z,44.39
2019-05-12T18:23:19.713Z,44.99
2019-05-12T18:25:46.653Z,45.48
2019-05-12T18:28:21.515Z,45.56
2019-05-12T18:30:48.206Z,45.56
2019-05-12T18:33:29.629Z,45.82
2019-05-12T18:35:48.901Z,46.37
2019-05-12T18:38:24.066Z,46.19
2019-05-12T18:40:49.671Z,46.48
2019-05-12T18:43:19.121Z,46.20
2019-05-12T18:45:54.984Z,46.47
2019-05-12T18:48:22.298Z,46.43
2019-05-12T18:50:51.100Z,48.35
2019-05-12T18:53:27.657Z,47.58
2019-05-12T18:55:53.960Z,48.13
2019-05-12T18:58:30.854Z,47.06
2019-05-12T19:00:54.755Z,47.59
2019-05-12T19:03:25.595Z,48.36
2019-05-12T19:05:58.136Z,48.32
2019-05-12T19:08:26.603Z,48.25
2019-05-12T19:10:56.392Z,47.98
2019-05-12T19:13:26.284Z,49.78
2019-05-12T19:16:02.622Z,49.67
2019-05-12T19:18:32.323Z,47.96
2019-05-12T19:20:58.358Z,49.54
2019-05-12T19:23:34.989Z,48.84
2019-05-12T19:25:59.808Z,48.75
2019-05-12T19:28:29.336Z,49.37
2019-05-12T19:31:00.921Z,48.42
2019-05-12T19:33:30.345Z,48.39
2019-05-12T19:36:04.316Z,49.08
2019-05-12T19:38:48.574Z,47.89
2019-05-12T19:41:38.107Z,48.23
2019-05-12T19:44:07.483Z,48.15
2019-05-12T19:46:39.844Z,49.33
2019-05-12T19:49:07.326Z,48.66
2019-05-12T19:51:36.254Z,48.54
2019-05-12T19:54:27.538Z,48.40
2019-05-12T19:56:53.614Z,48.78
2019-05-12T19:59:23.617Z,48.28
2019-05-12T20:01:53.723Z,48.95
2019-05-12T20:04:33.417Z,49.51
2019-05-12T20:06:54.637Z,48.23
2019-05-12T20:09:24.393Z,47.14
2019-05-12T20:11:53.987Z,48.34
2019-05-12T20:14:24.092Z,48.38
2019-05-12T20:16:54.395Z,47.16
2019-05-12T20:19:25.459Z,47.14
2019-05-12T20:21:55.235Z,45.82
2019-05-12T20:24:24.703Z,46.74
2019-05-12T20:26:54.315Z,45.96
2019-05-12T20:29:32.745Z,45.77
2019-05-12T20:31:55.117Z,45.60
2019-05-12T20:34:24.770Z,44.74
2019-05-12T20:36:59.159Z,45.41
2019-05-12T20:39:25.560Z,44.62
2019-05-12T20:42:00.698Z,45.40
2019-05-12T20:44:26.449Z,44.59
2019-05-12T20:47:01.355Z,44.85
2019-05-12T20:49:27.175Z,45.88
2019-05-12T20:52:04.035Z,46.33
2019-05-12T20:54:28.250Z,45.79
2019-05-12T20:57:02.300Z,46.90
2019-05-12T20:59:29.546Z,46.33
2019-05-12T21:01:59.095Z,45.43
2019-05-12T21:04:31.278Z,45.97
2019-05-12T21:06:59.994Z,46.17
2019-05-12T21:09:29.451Z,46.53
2019-05-12T21:11:58.913Z,45.93
2019-05-12T21:14:28.721Z,46.40
2019-05-12T21:16:58.175Z,46.67
2019-05-12T21:19:29.272Z,47.05
2019-05-12T21:21:59.299Z,47.15
2019-05-12T21:24:29.553Z,47.35
2019-05-12T21:26:59.990Z,47.39
2019-05-12T21:29:30.099Z,47.42
2019-05-12T21:32:03.070Z,49.39
2019-05-12T21:34:31.217Z,47.89
2019-05-12T21:37:04.642Z,48.81
2019-05-12T21:39:33.588Z,48.39
2019-05-12T21:42:03.951Z,48.37
2019-05-12T21:44:33.892Z,48.70
2019-05-12T21:47:10.001Z,48.61
2019-05-12T21:49:35.012Z,48.75
2019-05-12T21:52:06.545Z,48.79
2019-05-12T21:54:39.394Z,49.07
2019-05-12T21:57:07.319Z,50.96
2019-05-12T21:59:39.637Z,49.38
2019-05-12T22:02:07.993Z,50.55
2019-05-12T22:04:41.214Z,49.96
2019-05-12T22:07:08.937Z,49.54
2019-05-12T22:09:41.447Z,50.28
2019-05-12T22:12:10.194Z,50.51
2019-05-12T22:14:40.979Z,50.72
2019-05-12T22:17:10.792Z,49.79
2019-05-12T22:19:40.245Z,51.11
2019-05-12T22:22:09.702Z,50.82
2019-05-12T22:24:39.409Z,50.58
2019-05-12T22:27:16.048Z,50.85
2019-05-12T22:29:40.002Z,51.95
2019-05-12T22:32:09.455Z,52.54
2019-05-12T22:34:42.004Z,51.37
2019-05-12T22:37:10.662Z,51.35
2019-05-12T22:39:40.109Z,51.33
2019-05-12T22:42:11.643Z,51.54
2019-05-12T22:44:40.875Z,51.60
2019-05-12T22:47:13.651Z,51.35
2019-05-12T22:49:44.235Z,51.76
2019-05-12T22:52:13.693Z,51.81
2019-05-12T22:54:46.982Z,52.11
2019-05-12T22:57:14.630Z,53.62
2019-05-12T22:59:44.862Z,52.68
2019-05-12T23:02:16.042Z,51.66
2019-05-12T23:04:45.653Z,51.62
2019-05-12T23:07:19.181Z,51.88
2019-05-12T23:09:46.260Z,52.28
2019-05-12T23:12:20.042Z,52.43
2019-05-12T23:14:47.514Z,52.60
2019-05-12T23:17:16.960Z,52.67
2019-05-12T23:19:51.630Z,52.70
2019-05-12T23:22:17.560Z,52.84
2019-05-12T23:24:47.019Z,52.45
2019-05-12T23:27:18.757Z,52.98
2019-05-12T23:29:48.008Z,53.70
2019-05-12T23:32:17.939Z,54.12
2019-05-12T23:34:56.509Z,54.67
2019-05-12T23:37:18.632Z,54.36
2019-05-12T23:39:48.083Z,54.12
2019-05-12T23:42:17.527Z,55.58
2019-05-12T23:44:47.225Z,56.40
2019-05-12T23:47:16.667Z,55.01
2019-05-12T23:49:46.446Z,55.82
2019-05-12T23:52:16.249Z,55.23
2019-05-12T23:54:45.701Z,55.44
2019-05-12T23:57:15.734Z,56.21
2019-05-12T23:59:45.370Z,56.30
